CheckWX is a tool to help pilots better visualize weather data.  It is not intended as a substitute for an official pre-flight weather briefing.

20:52:38 UTC

FAPP METAR
Polokwane International Airport
Potgietersrus, South Africa
Current

53 mins ago

FAPP 182000Z AUTO 05005KT //// // ////// 19/15 Q1020
Observed
Feb-18 @ 20:00 UTC
Wind
  • 050° at 5 KTS
Visibility
Temperature
19°C / 66°F
Dewpoint
15°C / 59°F
Humidity
78%
Altimeter
30.12" Hg
Pressure
1019.92 hPa
Previous

2 hours ago

FAPP 181900Z AUTO 04007KT //// // ////// 20/15 Q1020
Observed
Feb-18 @ 19:00 UTC
Wind
  • 040° at 7 KTS
Visibility
Temperature
20°C / 68°F
Dewpoint
15°C / 59°F
Humidity
73%
Altimeter
30.12" Hg
Pressure
1019.92 hPa
Previous

3 hours ago

FAPP 181800Z 04007KT CAVOK 21/15 Q1019 NOSIG
Observed
Feb-18 @ 18:00 UTC
Wind
  • 040° at 7 KTS
Visibility
10,000+ meters
Flight Rules
VFR
Cloud Levels
  • Clear skies
Temperature
21°C / 70°F
Dewpoint
15°C / 59°F
Humidity
69%
Altimeter
30.09" Hg
Pressure
1018.92 hPa